createdAt,value
2018-07-16T00:02:52.463Z,65.42
2018-07-16T00:05:49.827Z,66.17
2018-07-16T00:08:47.788Z,65.84
2018-07-16T00:11:45.662Z,65.88
2018-07-16T00:14:43.560Z,66.44
2018-07-16T00:17:41.609Z,67.40
2018-07-16T00:20:39.455Z,66.92
2018-07-16T00:23:37.454Z,66.50
2018-07-16T00:26:35.389Z,66.04
2018-07-16T00:29:33.178Z,65.44
2018-07-16T00:32:31.336Z,67.80
2018-07-16T00:35:29.288Z,67.88
2018-07-16T00:38:27.439Z,68.11
2018-07-16T00:41:25.087Z,68.38
2018-07-16T00:44:23.254Z,69.45
2018-07-16T00:47:21.034Z,69.59
2018-07-16T00:50:18.308Z,69.48
2018-07-16T00:53:15.602Z,68.37
2018-07-16T00:56:12.726Z,66.68
2018-07-16T00:59:09.872Z,65.84
2018-07-16T01:02:07.914Z,68.09
2018-07-16T01:05:05.742Z,67.70
2018-07-16T01:08:03.245Z,67.13
2018-07-16T01:11:01.193Z,68.27
2018-07-16T01:13:59.027Z,68.02
2018-07-16T01:16:56.763Z,68.55
2018-07-16T01:19:54.656Z,68.67
2018-07-16T01:22:51.730Z,68.82
2018-07-16T01:25:49.885Z,68.62
2018-07-16T01:28:47.634Z,68.90
2018-07-16T01:31:45.409Z,67.82
2018-07-16T01:34:43.659Z,67.04
2018-07-16T01:37:41.787Z,69.52
2018-07-16T01:40:39.819Z,69.84
2018-07-16T01:43:37.810Z,69.68
2018-07-16T01:46:35.770Z,68.87
2018-07-16T01:49:33.622Z,70.75
2018-07-16T01:52:31.588Z,69.92
2018-07-16T01:55:29.126Z,69.52
2018-07-16T01:58:26.474Z,69.88
2018-07-16T02:01:23.733Z,69.91
2018-07-16T02:04:21.740Z,68.45
2018-07-16T02:07:19.074Z,70.49
2018-07-16T02:10:16.513Z,70.06
2018-07-16T02:13:14.122Z,70.27
2018-07-16T02:16:11.654Z,70.33
2018-07-16T02:19:08.881Z,69.74
2018-07-16T02:22:07.102Z,68.78
2018-07-16T02:25:04.414Z,70.14
2018-07-16T02:28:02.072Z,68.85
2018-07-16T02:30:59.980Z,69.30
2018-07-16T02:33:57.514Z,70.07
2018-07-16T02:36:55.409Z,71.32
2018-07-16T02:39:52.661Z,70.81
2018-07-16T02:42:49.767Z,70.28
2018-07-16T02:45:47.398Z,70.09
2018-07-16T02:48:45.326Z,68.81
2018-07-16T02:51:43.062Z,68.69
2018-07-16T02:54:40.931Z,69.28
2018-07-16T02:57:39.175Z,69.73
2018-07-16T03:00:36.980Z,70.73
2018-07-16T03:03:34.858Z,71.05
2018-07-16T03:06:32.719Z,70.72
2018-07-16T03:09:30.762Z,69.17
2018-07-16T03:12:28.522Z,69.33
2018-07-16T03:15:27.767Z,69.20
2018-07-16T03:18:25.875Z,70.89
2018-07-16T03:21:24.106Z,71.07
2018-07-16T03:24:21.472Z,72.19
2018-07-16T03:27:18.942Z,71.90
2018-07-16T03:30:16.748Z,71.40
2018-07-16T03:33:14.646Z,71.22
2018-07-16T03:36:12.025Z,69.82
2018-07-16T03:39:08.879Z,68.83
2018-07-16T03:42:06.377Z,67.73
2018-07-16T03:45:03.746Z,67.31
2018-07-16T03:48:01.671Z,65.49
2018-07-16T03:50:59.571Z,64.58
2018-07-16T03:53:57.455Z,63.87
2018-07-16T03:56:54.515Z,62.88
2018-07-16T03:59:52.726Z,62.26
2018-07-16T04:02:50.251Z,59.73
2018-07-16T04:05:48.183Z,58.22
2018-07-16T04:08:45.922Z,56.96
2018-07-16T04:11:43.869Z,57.22
2018-07-16T04:14:41.707Z,56.00
2018-07-16T04:17:38.745Z,54.95
2018-07-16T04:20:36.360Z,54.86
2018-07-16T04:23:34.399Z,53.17
2018-07-16T04:26:31.550Z,52.91
2018-07-16T04:29:29.033Z,51.83
2018-07-16T04:32:26.346Z,51.56
2018-07-16T04:35:23.638Z,50.15
2018-07-16T04:38:20.959Z,49.82
2018-07-16T04:41:18.574Z,47.51
2018-07-16T04:44:16.220Z,47.44
2018-07-16T04:47:14.186Z,47.23
2018-07-16T04:50:11.894Z,45.28
2018-07-16T04:53:09.494Z,44.03
2018-07-16T04:56:07.727Z,42.52
2018-07-16T04:59:05.586Z,42.96
2018-07-16T05:02:03.622Z,41.98
2018-07-16T05:05:01.068Z,41.12
2018-07-16T05:07:59.118Z,38.56
2018-07-16T05:10:56.923Z,40.46
2018-07-16T05:13:54.919Z,39.01
2018-07-16T05:16:52.815Z,39.21
2018-07-16T05:19:50.169Z,36.73
2018-07-16T05:22:47.802Z,35.88
2018-07-16T05:25:45.703Z,34.95
2018-07-16T05:28:43.680Z,35.15
2018-07-16T05:31:41.363Z,36.75
2018-07-16T05:34:39.418Z,34.97
2018-07-16T05:37:36.904Z,34.94
2018-07-16T05:40:34.909Z,34.59
2018-07-16T05:43:32.406Z,33.27
2018-07-16T05:46:30.484Z,32.54
2018-07-16T05:49:27.823Z,31.46
2018-07-16T05:52:25.095Z,31.75
2018-07-16T05:55:22.666Z,31.95
2018-07-16T05:58:20.764Z,30.67
2018-07-16T06:01:18.375Z,33.17
2018-07-16T06:04:15.542Z,30.29
2018-07-16T06:07:13.017Z,30.81
2018-07-16T06:10:10.985Z,30.84
2018-07-16T06:13:08.530Z,30.08
2018-07-16T06:16:06.090Z,30.60
2018-07-16T06:19:03.683Z,30.98
2018-07-16T06:22:01.833Z,29.85
2018-07-16T06:24:58.951Z,29.92
2018-07-16T06:27:56.702Z,29.18
2018-07-16T06:30:53.901Z,28.66
2018-07-16T06:33:52.139Z,27.97
2018-07-16T06:36:49.707Z,29.18
2018-07-16T06:39:47.762Z,28.98
2018-07-16T06:42:45.657Z,28.71
2018-07-16T06:45:42.808Z,27.38
2018-07-16T06:48:40.127Z,28.34
2018-07-16T06:51:37.431Z,26.78
2018-07-16T06:54:34.520Z,27.86
2018-07-16T06:57:32.263Z,27.29
2018-07-16T07:00:29.511Z,27.17
2018-07-16T07:03:26.670Z,28.52
2018-07-16T07:06:24.762Z,27.47
2018-07-16T07:09:22.144Z,26.79
2018-07-16T07:12:19.688Z,28.03
2018-07-16T07:15:17.231Z,27.16
2018-07-16T07:18:14.278Z,28.00
2018-07-16T07:21:11.402Z,27.14
2018-07-16T07:24:08.993Z,26.75
2018-07-16T07:27:06.175Z,26.76
2018-07-16T07:30:04.330Z,25.50
2018-07-16T07:33:01.434Z,27.49
2018-07-16T07:35:58.668Z,28.77
2018-07-16T07:38:56.515Z,28.44
2018-07-16T07:41:53.657Z,29.46
2018-07-16T07:44:51.258Z,28.28
2018-07-16T07:47:49.413Z,27.71
2018-07-16T07:50:47.270Z,27.13
2018-07-16T07:53:45.279Z,29.15
2018-07-16T07:56:43.069Z,29.75
2018-07-16T07:59:41.208Z,30.05
2018-07-16T08:02:38.431Z,29.62
2018-07-16T08:05:35.749Z,28.28
2018-07-16T08:08:33.869Z,26.56
2018-07-16T08:11:31.894Z,27.54
2018-07-16T08:14:29.815Z,27.15
2018-07-16T08:17:27.915Z,26.27
2018-07-16T08:20:25.802Z,26.47
2018-07-16T08:23:23.726Z,26.36
2018-07-16T08:26:20.853Z,28.26
2018-07-16T08:29:18.481Z,29.42
2018-07-16T08:32:16.565Z,28.33
2018-07-16T08:35:14.775Z,27.95
2018-07-16T08:38:12.838Z,27.71
2018-07-16T08:41:10.733Z,26.33
2018-07-16T08:44:08.526Z,26.62
2018-07-16T08:47:06.008Z,26.20
2018-07-16T08:50:03.802Z,26.37
2018-07-16T08:53:01.448Z,27.23
2018-07-16T08:55:58.955Z,25.77
2018-07-16T08:58:56.886Z,27.15
2018-07-16T09:01:54.682Z,27.81
2018-07-16T09:04:52.658Z,26.55
2018-07-16T09:07:50.880Z,25.29
2018-07-16T09:10:48.644Z,26.79
2018-07-16T09:13:46.621Z,25.52
2018-07-16T09:16:44.681Z,26.57
2018-07-16T09:19:42.111Z,27.01
2018-07-16T09:22:39.438Z,26.41
2018-07-16T09:25:36.931Z,26.50
2018-07-16T09:28:35.111Z,27.71
2018-07-16T09:31:32.993Z,25.65
2018-07-16T09:34:30.438Z,27.52
2018-07-16T09:37:28.362Z,25.53
2018-07-16T09:40:26.607Z,25.85
2018-07-16T09:43:24.014Z,26.20
2018-07-16T09:46:21.848Z,26.54
2018-07-16T09:49:19.368Z,25.36
2018-07-16T09:52:17.423Z,25.87
2018-07-16T09:55:15.532Z,25.75
2018-07-16T09:58:13.234Z,26.18
2018-07-16T10:01:16.799Z,26.63
2018-07-16T10:04:14.787Z,24.58
2018-07-16T10:07:12.769Z,24.50
2018-07-16T10:10:10.821Z,24.53
2018-07-16T10:13:08.735Z,24.81
2018-07-16T10:16:05.936Z,27.13
2018-07-16T10:19:03.122Z,26.78
2018-07-16T10:22:00.968Z,25.80
2018-07-16T10:24:58.299Z,24.79
2018-07-16T10:27:55.525Z,24.38
2018-07-16T10:30:53.075Z,23.92
2018-07-16T10:33:51.331Z,23.18
2018-07-16T10:36:48.389Z,24.87
2018-07-16T10:39:45.811Z,24.80
2018-07-16T10:42:43.675Z,25.51
2018-07-16T10:45:41.620Z,26.51
2018-07-16T10:48:39.668Z,25.43
2018-07-16T10:51:37.446Z,25.70
2018-07-16T10:54:35.092Z,25.62
2018-07-16T10:57:32.999Z,24.57
2018-07-16T11:00:30.659Z,23.48
2018-07-16T11:03:28.132Z,23.48
2018-07-16T11:06:31.279Z,25.65
2018-07-16T11:09:28.642Z,25.49
2018-07-16T11:12:26.758Z,26.74
2018-07-16T11:15:25.039Z,25.02
2018-07-16T11:18:22.631Z,24.45
2018-07-16T11:21:20.689Z,26.24
2018-07-16T11:24:18.478Z,24.81
2018-07-16T11:27:15.535Z,26.07
2018-07-16T11:30:14.503Z,24.73
2018-07-16T11:33:12.320Z,26.15
2018-07-16T11:36:09.575Z,26.24
2018-07-16T11:39:06.570Z,26.64
2018-07-16T11:42:03.810Z,28.10
2018-07-16T11:45:00.964Z,27.87
2018-07-16T11:47:58.071Z,30.63
2018-07-16T11:50:55.754Z,29.55
2018-07-16T11:53:52.830Z,29.12
2018-07-16T11:56:50.542Z,28.67
2018-07-16T11:59:48.199Z,28.77
2018-07-16T12:02:46.385Z,30.39
2018-07-16T12:05:43.772Z,30.17
2018-07-16T12:08:41.991Z,29.56
2018-07-16T12:11:40.090Z,28.77
2018-07-16T12:14:38.238Z,29.51
2018-07-16T12:17:36.084Z,29.77
2018-07-16T12:20:34.158Z,29.19
2018-07-16T12:23:32.279Z,29.51
2018-07-16T12:26:30.050Z,29.14
2018-07-16T12:29:27.457Z,28.93
2018-07-16T12:32:24.667Z,28.61
2018-07-16T12:35:22.564Z,29.63
2018-07-16T12:38:20.731Z,28.36
2018-07-16T12:41:18.365Z,28.23
2018-07-16T12:44:16.361Z,28.61
2018-07-16T12:47:13.631Z,28.29
2018-07-16T12:50:11.554Z,29.24
2018-07-16T12:53:08.596Z,30.26
2018-07-16T12:56:05.904Z,29.01
2018-07-16T12:59:03.366Z,28.11
2018-07-16T13:02:01.274Z,28.43
2018-07-16T13:04:58.590Z,27.88
2018-07-16T13:07:56.075Z,28.54
2018-07-16T13:10:54.011Z,28.45
2018-07-16T13:13:52.226Z,28.33
2018-07-16T13:16:49.690Z,27.98
2018-07-16T13:19:47.610Z,28.59
2018-07-16T13:22:45.726Z,28.35
2018-07-16T13:25:43.361Z,27.97
2018-07-16T13:28:41.081Z,28.90
2018-07-16T13:31:38.729Z,29.40
2018-07-16T13:34:36.102Z,29.30
2018-07-16T13:37:34.189Z,28.81
2018-07-16T13:40:31.333Z,27.97
2018-07-16T13:43:29.287Z,30.04
2018-07-16T13:46:26.664Z,29.04
2018-07-16T13:49:24.159Z,29.02
2018-07-16T13:52:21.435Z,29.08
2018-07-16T13:55:19.460Z,29.58
2018-07-16T13:58:17.725Z,28.66
2018-07-16T14:01:15.219Z,29.49
2018-07-16T14:04:12.626Z,29.19
2018-07-16T14:07:10.922Z,29.65
2018-07-16T14:10:08.070Z,28.86
2018-07-16T14:13:06.100Z,29.51
2018-07-16T14:16:03.320Z,28.47
2018-07-16T14:19:01.513Z,28.82
2018-07-16T14:21:59.180Z,28.66
2018-07-16T14:24:56.372Z,28.05
2018-07-16T14:27:54.261Z,29.15
2018-07-16T14:30:52.184Z,29.84
2018-07-16T14:33:49.834Z,29.42
2018-07-16T14:36:47.544Z,30.11
2018-07-16T14:39:45.818Z,29.49
2018-07-16T14:42:43.987Z,29.66
2018-07-16T14:45:42.149Z,28.96
2018-07-16T14:48:40.095Z,30.50
2018-07-16T14:51:38.104Z,31.08
2018-07-16T14:54:35.165Z,29.96
2018-07-16T14:57:33.091Z,30.08
2018-07-16T15:00:30.893Z,29.82
2018-07-16T15:03:28.989Z,29.31
2018-07-16T15:06:26.343Z,29.84
2018-07-16T15:09:23.612Z,29.95
2018-07-16T15:12:21.730Z,29.82
2018-07-16T15:15:19.130Z,30.43
2018-07-16T15:18:17.240Z,29.65
2018-07-16T15:21:14.734Z,28.43
2018-07-16T15:24:12.549Z,30.10
2018-07-16T15:27:09.985Z,29.34
2018-07-16T15:30:08.283Z,29.97
2018-07-16T15:33:05.542Z,29.48
2018-07-16T15:36:03.050Z,29.92
2018-07-16T15:39:00.496Z,28.86
2018-07-16T15:41:58.236Z,30.45
2018-07-16T15:44:55.333Z,29.80
2018-07-16T15:47:53.450Z,30.63
2018-07-16T15:50:50.846Z,29.73
2018-07-16T15:53:48.364Z,30.03
2018-07-16T15:56:45.909Z,30.00
2018-07-16T15:59:44.757Z,29.57
2018-07-16T16:02:42.435Z,29.89
2018-07-16T16:05:40.376Z,29.68
2018-07-16T16:08:37.726Z,29.34
2018-07-16T16:11:35.106Z,30.58
2018-07-16T16:14:32.947Z,29.87
2018-07-16T16:17:30.685Z,31.72
2018-07-16T16:20:27.996Z,29.51
2018-07-16T16:23:25.964Z,30.64
2018-07-16T16:26:23.293Z,29.91
2018-07-16T16:29:20.323Z,29.80
2018-07-16T16:32:18.414Z,31.14
2018-07-16T16:35:16.348Z,30.73
2018-07-16T16:38:14.395Z,31.53
2018-07-16T16:41:11.966Z,31.15
2018-07-16T16:44:09.742Z,31.11
2018-07-16T16:47:07.714Z,31.34
2018-07-16T16:50:04.877Z,30.86
2018-07-16T16:53:02.851Z,31.09
2018-07-16T16:56:01.064Z,31.54
2018-07-16T16:58:58.910Z,31.20
2018-07-16T17:01:56.496Z,32.49
2018-07-16T17:04:53.803Z,31.66
2018-07-16T17:07:51.065Z,32.03
2018-07-16T17:10:48.963Z,30.90
2018-07-16T17:13:47.059Z,30.95
2018-07-16T17:16:44.373Z,32.45
2018-07-16T17:19:41.755Z,31.87
2018-07-16T17:22:39.415Z,31.62
2018-07-16T17:25:36.777Z,32.18
2018-07-16T17:28:34.882Z,32.48
2018-07-16T17:31:32.587Z,32.62
2018-07-16T17:34:29.897Z,32.92
2018-07-16T17:37:27.036Z,32.35
2018-07-16T17:40:25.515Z,33.26
2018-07-16T17:43:22.725Z,32.93
2018-07-16T17:46:20.351Z,33.17
2018-07-16T17:49:17.637Z,32.57
2018-07-16T17:52:15.702Z,33.40
2018-07-16T17:55:13.319Z,33.33
2018-07-16T17:58:11.020Z,33.41
2018-07-16T18:01:09.032Z,33.52
2018-07-16T18:04:07.302Z,33.95
2018-07-16T18:07:04.618Z,34.24
2018-07-16T18:10:02.553Z,35.20
2018-07-16T18:13:00.108Z,34.24
2018-07-16T18:15:58.276Z,33.92
2018-07-16T18:18:56.223Z,34.27
2018-07-16T18:21:53.770Z,34.32
2018-07-16T18:24:51.764Z,35.01
2018-07-16T18:27:49.613Z,35.51
2018-07-16T18:30:46.765Z,35.23
2018-07-16T18:33:44.515Z,35.52
2018-07-16T18:36:42.176Z,36.03
2018-07-16T18:39:39.280Z,35.56
2018-07-16T18:42:37.267Z,36.15
2018-07-16T18:45:35.482Z,36.21
2018-07-16T18:48:33.161Z,36.44
2018-07-16T18:51:31.296Z,36.53
2018-07-16T18:54:29.251Z,36.60
2018-07-16T18:57:26.391Z,36.73
2018-07-16T19:00:24.393Z,36.73
2018-07-16T19:03:22.395Z,36.90
2018-07-16T19:06:20.243Z,37.55
2018-07-16T19:09:18.739Z,37.14
2018-07-16T19:12:16.176Z,38.41
2018-07-16T19:15:13.589Z,38.22
2018-07-16T19:18:11.664Z,37.98
2018-07-16T19:21:09.610Z,39.18
2018-07-16T19:24:07.546Z,39.99
2018-07-16T19:27:05.011Z,38.93
2018-07-16T19:30:02.316Z,39.64
2018-07-16T19:32:59.863Z,39.75
2018-07-16T19:35:57.456Z,40.44
2018-07-16T19:38:55.769Z,40.08
2018-07-16T19:41:53.027Z,40.53
2018-07-16T19:44:51.046Z,40.79
2018-07-16T19:47:48.735Z,39.96
2018-07-16T19:50:46.678Z,42.09
2018-07-16T19:53:44.057Z,43.53
2018-07-16T19:56:41.231Z,45.05
2018-07-16T19:59:38.331Z,46.70
2018-07-16T20:02:35.553Z,47.77
2018-07-16T20:05:32.930Z,48.55
2018-07-16T20:08:30.228Z,46.87
2018-07-16T20:11:27.799Z,46.75
2018-07-16T20:14:25.544Z,46.52
2018-07-16T20:17:23.019Z,47.91
2018-07-16T20:20:22.024Z,48.71
2018-07-16T20:23:19.392Z,49.13
2018-07-16T20:26:17.504Z,49.21
2018-07-16T20:29:15.334Z,50.79
2018-07-16T20:32:12.387Z,50.27
2018-07-16T20:35:09.491Z,51.44
2018-07-16T20:38:06.975Z,51.16
2018-07-16T20:41:04.921Z,52.40
2018-07-16T20:44:02.248Z,52.40
2018-07-16T20:46:59.439Z,50.70
2018-07-16T20:49:57.214Z,52.97
2018-07-16T20:52:55.200Z,52.18
2018-07-16T20:55:53.140Z,53.00
2018-07-16T20:58:51.047Z,54.08
2018-07-16T21:01:48.753Z,53.40
2018-07-16T21:04:46.413Z,53.99
2018-07-16T21:07:43.800Z,54.10
2018-07-16T21:10:41.223Z,53.94
2018-07-16T21:13:39.244Z,54.64
2018-07-16T21:16:36.446Z,54.46
2018-07-16T21:19:33.661Z,54.62
2018-07-16T21:22:31.780Z,54.16
2018-07-16T21:25:30.354Z,53.94
2018-07-16T21:28:28.433Z,53.88
2018-07-16T21:31:25.463Z,53.86
2018-07-16T21:34:23.278Z,54.92
2018-07-16T21:37:20.864Z,54.95
2018-07-16T21:40:18.890Z,54.42
2018-07-16T21:43:16.947Z,54.71
2018-07-16T21:46:14.554Z,55.28
2018-07-16T21:49:12.506Z,55.85
2018-07-16T21:52:09.860Z,55.73
2018-07-16T21:55:07.511Z,55.78
2018-07-16T21:58:04.980Z,56.03
2018-07-16T22:01:02.641Z,56.42
2018-07-16T22:04:00.639Z,56.91
2018-07-16T22:06:57.979Z,57.32
2018-07-16T22:09:55.358Z,56.73
2018-07-16T22:12:52.567Z,58.23
2018-07-16T22:15:50.702Z,58.10
2018-07-16T22:18:47.808Z,57.74
2018-07-16T22:21:45.806Z,56.81
2018-07-16T22:24:43.387Z,56.41
2018-07-16T22:27:40.620Z,57.07
2018-07-16T22:30:37.951Z,57.65
2018-07-16T22:33:35.923Z,57.83
2018-07-16T22:36:33.795Z,58.38
2018-07-16T22:39:31.059Z,58.16
2018-07-16T22:42:28.127Z,57.36
2018-07-16T22:45:26.130Z,57.48
2018-07-16T22:48:23.827Z,57.40
2018-07-16T22:51:21.034Z,59.24
2018-07-16T22:54:18.813Z,59.67
2018-07-16T22:57:16.502Z,59.44
2018-07-16T23:00:14.612Z,59.09
2018-07-16T23:03:12.482Z,60.50
2018-07-16T23:06:09.934Z,59.84
2018-07-16T23:09:07.887Z,60.06
2018-07-16T23:12:05.826Z,60.31
2018-07-16T23:15:03.432Z,60.47
2018-07-16T23:18:01.472Z,60.39
2018-07-16T23:20:59.139Z,60.30
2018-07-16T23:23:57.334Z,60.84
2018-07-16T23:26:54.598Z,60.20
2018-07-16T23:30:01.023Z,60.23
2018-07-16T23:32:59.140Z,60.25
2018-07-16T23:35:56.374Z,61.70
2018-07-16T23:38:53.642Z,62.38
2018-07-16T23:41:51.289Z,63.12
2018-07-16T23:44:49.083Z,61.95
2018-07-16T23:47:46.314Z,61.92
2018-07-16T23:50:44.172Z,60.82
2018-07-16T23:53:41.763Z,60.37
2018-07-16T23:56:39.725Z,61.44
2018-07-16T23:59:37.507Z,61.29
